createdAt,value
2018-03-22T00:00:24.817Z,24.97
2018-03-22T00:02:52.909Z,23.50
2018-03-22T00:05:21.130Z,22.67
2018-03-22T00:07:48.618Z,21.53
2018-03-22T00:10:16.616Z,23.63
2018-03-22T00:12:45.072Z,22.97
2018-03-22T00:15:12.522Z,22.97
2018-03-22T00:17:41.499Z,18.57
2018-03-22T00:20:08.963Z,19.10
2018-03-22T00:22:38.346Z,19.27
2018-03-22T00:25:06.218Z,25.77
2018-03-22T00:27:33.669Z,23.70
2018-03-22T00:30:01.153Z,26.13
2018-03-22T00:32:28.611Z,22.87
2018-03-22T00:34:56.094Z,25.53
2018-03-22T00:37:24.312Z,25.83
2018-03-22T00:39:51.801Z,22.27
2018-03-22T00:42:19.333Z,21.40
2018-03-22T00:44:46.789Z,18.70
2018-03-22T00:47:14.761Z,23.53
2018-03-22T00:49:42.335Z,26.50
2018-03-22T00:52:09.886Z,23.33
2018-03-22T00:54:39.968Z,25.30
2018-03-22T00:57:07.536Z,18.43
2018-03-22T00:59:35.543Z,20.97
2018-03-22T01:02:03.468Z,22.20
2018-03-22T01:04:32.750Z,19.40
2018-03-22T01:07:00.198Z,20.07
2018-03-22T01:09:28.970Z,16.77
2018-03-22T01:11:57.196Z,18.80
2018-03-22T01:14:24.685Z,18.00
2018-03-22T01:16:52.147Z,18.47
2018-03-22T01:19:19.613Z,13.23
2018-03-22T01:21:47.836Z,12.57
2018-03-22T01:24:15.285Z,15.70
2018-03-22T01:26:42.762Z,16.07
2018-03-22T01:29:10.218Z,17.97
2018-03-22T01:31:37.698Z,17.47
2018-03-22T01:34:05.174Z,18.30
2018-03-22T01:36:33.050Z,15.20
2018-03-22T01:39:07.821Z,15.10
2018-03-22T01:41:35.274Z,16.60
2018-03-22T01:44:02.762Z,16.63
2018-03-22T01:46:31.462Z,17.23
2018-03-22T01:49:00.187Z,18.17
2018-03-22T01:51:27.629Z,16.40
2018-03-22T01:53:56.128Z,13.80
2018-03-22T01:56:23.579Z,16.03
2018-03-22T01:58:51.078Z,16.70
2018-03-22T02:01:18.628Z,15.37
2018-03-22T02:03:46.083Z,17.63
2018-03-22T02:06:13.571Z,11.27
2018-03-22T02:08:41.786Z,14.57
2018-03-22T02:11:09.681Z,12.10
2018-03-22T02:13:37.131Z,13.23
2018-03-22T02:16:05.138Z,13.23
2018-03-22T02:18:34.498Z,11.50
2018-03-22T02:21:02.797Z,14.33
2018-03-22T02:23:30.254Z,13.77
2018-03-22T02:25:57.723Z,16.83
2018-03-22T02:28:25.204Z,12.53
2018-03-22T02:30:52.715Z,10.77
2018-03-22T02:33:20.285Z,12.03
2018-03-22T02:35:47.741Z,12.00
2018-03-22T02:38:16.505Z,12.33
2018-03-22T02:40:44.552Z,13.83
2018-03-22T02:43:12.441Z,10.73
2018-03-22T02:45:40.702Z,12.87
2018-03-22T02:48:08.190Z,14.07
2018-03-22T02:50:35.753Z,11.40
2018-03-22T02:53:06.469Z,16.53
2018-03-22T02:55:34.749Z,14.73
2018-03-22T02:58:02.566Z,12.20
2018-03-22T03:00:30.805Z,13.37
2018-03-22T03:02:58.279Z,15.57
2018-03-22T03:05:27.029Z,13.73
2018-03-22T03:07:54.485Z,14.67
2018-03-22T03:10:21.941Z,18.33
2018-03-22T03:12:49.510Z,18.03
2018-03-22T03:15:17.068Z,15.93
2018-03-22T03:17:44.527Z,17.07
2018-03-22T03:20:11.985Z,16.67
2018-03-22T03:22:39.442Z,15.43
2018-03-22T03:25:07.354Z,18.00
2018-03-22T03:27:34.809Z,18.97
2018-03-22T03:30:02.722Z,17.80
2018-03-22T03:32:30.177Z,15.93
2018-03-22T03:34:57.738Z,16.23
2018-03-22T03:37:25.194Z,18.37
2018-03-22T03:39:52.662Z,14.17
2018-03-22T03:42:20.117Z,22.03
2018-03-22T03:44:47.572Z,18.80
2018-03-22T03:47:15.031Z,19.73
2018-03-22T03:49:42.485Z,20.27
2018-03-22T03:52:09.941Z,15.67
2018-03-22T03:54:37.416Z,18.57
2018-03-22T03:57:05.641Z,16.17
2018-03-22T03:59:47.778Z,18.80
2018-03-22T04:02:15.247Z,18.23
2018-03-22T04:04:42.783Z,15.47
2018-03-22T04:07:10.257Z,16.50
2018-03-22T04:09:38.523Z,19.33
2018-03-22T04:12:05.972Z,16.30
2018-03-22T04:14:33.436Z,15.20
2018-03-22T04:17:00.893Z,19.97
2018-03-22T04:19:28.341Z,14.57
2018-03-22T04:21:56.509Z,15.87
2018-03-22T04:24:24.399Z,16.00
2018-03-22T04:26:52.825Z,17.37
2018-03-22T04:29:20.293Z,16.60
2018-03-22T04:31:47.752Z,17.63
2018-03-22T04:34:15.249Z,15.00
2018-03-22T04:36:43.474Z,17.10
2018-03-22T04:39:10.929Z,14.77
2018-03-22T04:41:38.417Z,16.30
2018-03-22T04:44:05.878Z,11.87
2018-03-22T04:46:33.887Z,10.67
2018-03-22T04:49:05.408Z,16.47
2018-03-22T04:51:33.632Z,9.37
2018-03-22T04:54:01.103Z,14.30
2018-03-22T04:56:29.355Z,14.37
2018-03-22T04:58:56.810Z,7.77
2018-03-22T05:01:26.446Z,12.70
2018-03-22T05:03:53.917Z,13.87
2018-03-22T05:06:21.387Z,15.07
2018-03-22T05:08:48.846Z,11.40
2018-03-22T05:11:17.073Z,11.97
2018-03-22T05:13:44.531Z,11.57
2018-03-22T05:16:12.818Z,10.93
2018-03-22T05:18:40.324Z,10.33
2018-03-22T05:21:07.734Z,16.50
2018-03-22T05:23:35.254Z,11.77
2018-03-22T05:26:02.774Z,11.83
2018-03-22T05:28:30.226Z,11.63
2018-03-22T05:30:57.787Z,10.67
2018-03-22T05:33:26.014Z,13.57
2018-03-22T05:35:53.865Z,12.50
2018-03-22T05:38:22.094Z,12.63
2018-03-22T05:40:49.549Z,9.97
2018-03-22T05:43:19.435Z,10.47
2018-03-22T05:45:46.885Z,8.63
2018-03-22T05:48:14.372Z,11.73
2018-03-22T05:50:42.401Z,11.33
2018-03-22T05:53:14.001Z,12.87
2018-03-22T05:55:41.459Z,8.80
2018-03-22T05:58:09.015Z,12.23
2018-03-22T06:00:36.480Z,8.97
2018-03-22T06:03:03.941Z,10.53
2018-03-22T06:05:31.501Z,14.43
2018-03-22T06:07:59.050Z,11.27
2018-03-22T06:10:26.602Z,13.27
2018-03-22T06:12:54.045Z,8.87
2018-03-22T06:15:23.102Z,9.73
2018-03-22T06:17:50.593Z,8.27
2018-03-22T06:20:18.070Z,10.93
2018-03-22T06:22:45.742Z,8.80
2018-03-22T06:25:13.289Z,13.50
2018-03-22T06:27:40.841Z,11.80
2018-03-22T06:30:08.289Z,17.47
2018-03-22T06:32:35.761Z,20.67
2018-03-22T06:35:03.309Z,7.63
2018-03-22T06:37:30.778Z,9.17
2018-03-22T06:40:00.659Z,10.63
2018-03-22T06:42:28.137Z,11.27
2018-03-22T06:44:55.598Z,10.27
2018-03-22T06:47:23.153Z,10.53
2018-03-22T06:49:51.173Z,11.30
2018-03-22T06:52:20.374Z,13.00
2018-03-22T06:54:47.941Z,12.47
2018-03-22T06:57:15.822Z,14.27
2018-03-22T06:59:43.282Z,10.90
2018-03-22T07:02:12.271Z,9.13
2018-03-22T07:04:39.757Z,11.77
2018-03-22T07:07:07.317Z,10.60
2018-03-22T07:09:34.773Z,8.97
2018-03-22T07:12:02.229Z,10.60
2018-03-22T07:14:29.687Z,10.30
2018-03-22T07:16:57.129Z,9.83
2018-03-22T07:19:24.693Z,11.23
2018-03-22T07:21:52.167Z,12.30
2018-03-22T07:24:21.820Z,9.40
2018-03-22T07:26:49.270Z,10.37
2018-03-22T07:29:16.777Z,10.13
2018-03-22T07:31:44.218Z,11.20
2018-03-22T07:34:11.681Z,12.17
2018-03-22T07:36:39.134Z,15.10
2018-03-22T07:39:06.581Z,8.73
2018-03-22T07:41:34.765Z,10.80
2018-03-22T07:44:08.657Z,6.97
2018-03-22T07:46:36.127Z,9.70
2018-03-22T07:49:03.588Z,9.23
2018-03-22T07:51:31.039Z,9.73
2018-03-22T07:53:58.489Z,10.55
2018-03-22T07:56:25.932Z,9.63
2018-03-22T07:58:53.762Z,8.00
2018-03-22T08:01:22.970Z,10.80
2018-03-22T08:03:51.302Z,8.17
2018-03-22T08:06:18.745Z,8.03
2018-03-22T08:08:46.198Z,10.73
2018-03-22T08:11:13.654Z,9.77
2018-03-22T08:13:41.110Z,11.23
2018-03-22T08:16:08.999Z,15.73
2018-03-22T08:18:37.269Z,10.33
2018-03-22T08:21:05.917Z,12.30
2018-03-22T08:23:33.378Z,11.33
2018-03-22T08:26:01.456Z,12.37
2018-03-22T08:28:28.906Z,14.53
2018-03-22T08:30:56.358Z,18.63
2018-03-22T08:33:23.850Z,12.00
2018-03-22T08:35:51.297Z,13.20
2018-03-22T08:38:18.766Z,11.70
2018-03-22T08:40:46.225Z,10.23
2018-03-22T08:43:14.489Z,13.60
2018-03-22T08:45:41.946Z,13.80
2018-03-22T08:48:09.411Z,11.57
2018-03-22T08:50:38.401Z,9.43
2018-03-22T08:53:05.851Z,8.93
2018-03-22T08:55:33.319Z,12.17
2018-03-22T08:58:02.277Z,14.10
2018-03-22T09:00:29.736Z,11.43
2018-03-22T09:02:57.199Z,10.53
2018-03-22T09:05:24.652Z,11.77
2018-03-22T09:07:52.105Z,12.23
2018-03-22T09:10:19.596Z,15.50
2018-03-22T09:12:48.982Z,11.63
2018-03-22T09:15:16.997Z,15.27
2018-03-22T09:17:45.639Z,21.27
2018-03-22T09:20:13.640Z,25.70
2018-03-22T09:22:43.097Z,29.13
2018-03-22T09:25:10.549Z,33.80
2018-03-22T09:27:38.001Z,32.03
2018-03-22T09:30:05.512Z,31.47
2018-03-22T09:32:32.940Z,31.27
2018-03-22T09:35:00.997Z,29.90
2018-03-22T09:37:28.464Z,34.17
2018-03-22T09:39:55.930Z,29.07
2018-03-22T09:42:24.910Z,34.90
2018-03-22T09:44:52.574Z,34.97
2018-03-22T09:47:20.030Z,35.20
2018-03-22T09:49:48.306Z,32.77
2018-03-22T09:52:15.874Z,40.20
2018-03-22T09:54:43.322Z,39.03
2018-03-22T09:57:10.791Z,36.33
2018-03-22T09:59:39.068Z,34.57
2018-03-22T10:02:06.583Z,35.67
2018-03-22T10:04:34.022Z,30.67
2018-03-22T10:07:01.534Z,41.43
2018-03-22T10:09:29.703Z,36.00
2018-03-22T10:11:57.163Z,35.27
2018-03-22T10:14:24.629Z,34.40
2018-03-22T10:16:52.077Z,32.83
2018-03-22T10:19:19.535Z,37.57
2018-03-22T10:21:47.407Z,39.90
2018-03-22T10:24:14.857Z,33.67
2018-03-22T10:26:42.777Z,34.57
2018-03-22T10:29:10.229Z,38.00
2018-03-22T10:31:38.173Z,41.65
2018-03-22T10:34:05.624Z,45.12
2018-03-22T10:36:33.110Z,43.83
2018-03-22T10:39:00.560Z,44.70
2018-03-22T10:41:28.778Z,43.27
2018-03-22T10:43:56.786Z,43.43
2018-03-22T10:46:26.133Z,43.60
2018-03-22T10:48:54.594Z,43.60
2018-03-22T10:51:22.041Z,43.93
2018-03-22T10:53:50.589Z,53.63
2018-03-22T10:56:18.045Z,50.20
2018-03-22T10:58:45.503Z,55.80
2018-03-22T11:01:18.681Z,65.65
2018-03-22T11:03:51.947Z,54.23
2018-03-22T11:06:19.402Z,52.13
2018-03-22T11:08:46.858Z,47.03
2018-03-22T11:11:14.322Z,53.10
2018-03-22T11:13:41.802Z,52.83
2018-03-22T11:16:11.068Z,56.33
2018-03-22T11:18:38.940Z,51.97
2018-03-22T11:21:06.399Z,59.30
2018-03-22T11:23:33.973Z,57.30
2018-03-22T11:26:01.426Z,54.10
2018-03-22T11:28:28.883Z,49.43
2018-03-22T11:30:56.332Z,49.77
2018-03-22T11:33:23.786Z,51.80
2018-03-22T11:35:51.240Z,50.77
2018-03-22T11:38:18.693Z,48.63
2018-03-22T11:40:46.151Z,52.10
2018-03-22T11:43:13.622Z,47.17
2018-03-22T11:45:41.081Z,43.13
2018-03-22T11:48:08.537Z,49.37
2018-03-22T11:50:35.989Z,44.37
2018-03-22T11:53:03.450Z,46.87
2018-03-22T11:55:31.203Z,39.77
2018-03-22T11:57:58.666Z,48.00
2018-03-22T12:00:26.192Z,43.90
2018-03-22T12:02:54.629Z,42.80
2018-03-22T12:05:22.216Z,41.10
2018-03-22T12:07:49.780Z,38.33
2018-03-22T12:10:18.108Z,46.97
2018-03-22T12:12:45.580Z,36.90
2018-03-22T12:15:13.126Z,43.13
2018-03-22T12:17:40.577Z,42.50
2018-03-22T12:20:08.020Z,40.23
2018-03-22T12:22:35.480Z,37.03
2018-03-22T12:25:04.855Z,41.20
2018-03-22T12:27:33.074Z,35.03
2018-03-22T12:30:00.533Z,42.00
2018-03-22T12:32:29.170Z,35.43
2018-03-22T12:34:56.616Z,33.87
2018-03-22T12:37:24.880Z,33.20
2018-03-22T12:39:52.334Z,33.70
2018-03-22T12:42:19.917Z,24.80
2018-03-22T12:44:47.365Z,28.97
2018-03-22T12:47:15.594Z,32.83
2018-03-22T12:49:43.599Z,29.80
2018-03-22T12:52:11.045Z,26.47
2018-03-22T12:54:38.498Z,28.87
2018-03-22T12:57:05.950Z,30.73
2018-03-22T12:59:33.971Z,30.53
2018-03-22T13:02:01.417Z,28.83
2018-03-22T13:04:28.884Z,24.57
2018-03-22T13:06:56.751Z,25.47
2018-03-22T13:09:24.918Z,26.73
2018-03-22T13:11:52.370Z,28.90
2018-03-22T13:14:19.823Z,28.03
2018-03-22T13:16:48.063Z,32.33
2018-03-22T13:19:15.515Z,30.00
2018-03-22T13:21:43.321Z,32.97
2018-03-22T13:24:11.575Z,37.90
2018-03-22T13:26:39.014Z,35.80
2018-03-22T13:29:06.850Z,32.30
2018-03-22T13:31:34.301Z,30.63
2018-03-22T13:34:01.750Z,33.63
2018-03-22T13:36:29.205Z,36.00
2018-03-22T13:38:56.682Z,33.53
2018-03-22T13:41:24.646Z,34.07
2018-03-22T13:43:52.129Z,32.47
2018-03-22T13:46:19.698Z,29.70
2018-03-22T13:48:47.228Z,29.70
2018-03-22T13:51:14.694Z,33.23
2018-03-22T13:53:42.149Z,32.73
2018-03-22T13:56:09.607Z,29.03
2018-03-22T13:58:37.623Z,29.20
2018-03-22T14:01:05.846Z,28.87
2018-03-22T14:03:33.318Z,18.47
2018-03-22T14:06:00.758Z,19.40
2018-03-22T14:08:28.688Z,17.70
2018-03-22T14:10:56.889Z,16.40
2018-03-22T14:13:25.224Z,19.30
2018-03-22T14:15:53.554Z,16.57
2018-03-22T14:18:21.019Z,16.37
2018-03-22T14:20:48.458Z,15.50
2018-03-22T14:23:16.204Z,16.33
2018-03-22T14:25:43.655Z,13.93
2018-03-22T14:28:11.097Z,14.67
2018-03-22T14:30:38.605Z,12.17
2018-03-22T14:33:06.060Z,13.53
2018-03-22T14:35:33.514Z,14.87
2018-03-22T14:38:00.968Z,14.57
2018-03-22T14:40:28.418Z,13.50
2018-03-22T14:42:56.298Z,12.63
2018-03-22T14:45:24.183Z,13.30
2018-03-22T14:47:51.643Z,13.00
2018-03-22T14:50:19.101Z,14.00
2018-03-22T14:52:47.512Z,13.27
2018-03-22T14:55:14.965Z,15.85
2018-03-22T14:57:43.190Z,14.30
2018-03-22T15:00:10.689Z,12.97
2018-03-22T15:02:38.919Z,13.60
2018-03-22T15:05:06.409Z,13.93
2018-03-22T15:07:34.630Z,15.07
2018-03-22T15:10:02.104Z,13.27
2018-03-22T15:12:29.573Z,13.47
2018-03-22T15:14:57.044Z,13.47
2018-03-22T15:17:24.509Z,14.10
2018-03-22T15:19:52.022Z,12.93
2018-03-22T15:22:19.537Z,12.10
2018-03-22T15:24:47.753Z,14.20
2018-03-22T15:27:15.230Z,15.90
2018-03-22T15:29:42.703Z,14.67
2018-03-22T15:32:10.153Z,13.43
2018-03-22T15:34:37.659Z,14.83
2018-03-22T15:37:05.121Z,13.83
2018-03-22T15:39:32.591Z,13.10
2018-03-22T15:42:00.408Z,14.97
2018-03-22T15:44:28.641Z,13.30
2018-03-22T15:46:56.125Z,12.50
2018-03-22T15:49:23.583Z,14.37
2018-03-22T15:51:51.041Z,13.90
2018-03-22T15:54:18.494Z,13.40
2018-03-22T15:56:46.662Z,12.07
2018-03-22T15:59:14.115Z,12.03
2018-03-22T16:01:41.583Z,13.37
2018-03-22T16:04:09.034Z,12.37
2018-03-22T16:06:36.486Z,11.97
2018-03-22T16:09:03.968Z,11.17
2018-03-22T16:11:32.184Z,12.47
2018-03-22T16:13:59.720Z,10.40
2018-03-22T16:16:28.198Z,11.87
2018-03-22T16:18:56.414Z,10.80
2018-03-22T16:21:23.878Z,10.30
2018-03-22T16:23:51.330Z,11.73
2018-03-22T16:26:18.843Z,10.87
2018-03-22T16:28:47.085Z,10.27
2018-03-22T16:31:14.536Z,11.20
2018-03-22T16:33:42.809Z,10.47
2018-03-22T16:36:10.267Z,10.77
2018-03-22T16:38:37.716Z,10.10
2018-03-22T16:41:05.197Z,11.10
2018-03-22T16:43:32.699Z,10.30
2018-03-22T16:46:00.133Z,9.63
2018-03-22T16:48:28.497Z,10.50
2018-03-22T16:50:57.127Z,9.37
2018-03-22T16:53:24.590Z,11.13
2018-03-22T16:55:52.449Z,10.37
2018-03-22T16:58:19.901Z,10.47
2018-03-22T17:00:47.411Z,10.10
2018-03-22T17:03:15.373Z,10.13
2018-03-22T17:05:42.869Z,11.60
2018-03-22T17:08:11.042Z,11.00
2018-03-22T17:10:39.327Z,10.97
2018-03-22T17:13:08.134Z,10.20
2018-03-22T17:15:36.206Z,10.50
2018-03-22T17:18:03.649Z,10.57
2018-03-22T17:20:31.107Z,12.67
2018-03-22T17:22:58.561Z,11.03
2018-03-22T17:25:26.033Z,11.37
2018-03-22T17:27:53.479Z,10.43
2018-03-22T17:30:20.939Z,10.07
2018-03-22T17:32:48.404Z,13.07
2018-03-22T17:35:15.852Z,11.20
2018-03-22T17:37:43.308Z,12.70
2018-03-22T17:40:10.860Z,9.90
2018-03-22T17:42:38.578Z,12.27
2018-03-22T17:45:06.495Z,11.93
2018-03-22T17:47:33.950Z,11.20
2018-03-22T17:50:01.406Z,13.00
2018-03-22T17:52:28.863Z,11.13
2018-03-22T17:54:56.319Z,10.73
2018-03-22T17:57:23.805Z,11.60
2018-03-22T17:59:51.876Z,11.57
2018-03-22T18:02:20.007Z,12.83
2018-03-22T18:04:47.459Z,12.93
2018-03-22T18:07:15.462Z,11.23
2018-03-22T18:09:42.913Z,11.07
2018-03-22T18:12:10.366Z,11.03
2018-03-22T18:14:38.204Z,10.90
2018-03-22T18:17:06.444Z,13.17
2018-03-22T18:19:33.897Z,13.10
2018-03-22T18:22:01.377Z,12.13
2018-03-22T18:24:29.693Z,13.93
2018-03-22T18:26:57.590Z,13.70
2018-03-22T18:29:25.048Z,13.77
2018-03-22T18:31:52.497Z,13.90
2018-03-22T18:34:19.945Z,13.83
2018-03-22T18:36:47.994Z,16.23
2018-03-22T18:39:15.449Z,18.90
2018-03-22T18:41:43.015Z,24.67
2018-03-22T18:44:10.464Z,21.50
2018-03-22T18:46:38.269Z,23.37
2018-03-22T18:49:06.068Z,25.03
2018-03-22T18:51:34.281Z,28.33
2018-03-22T18:54:02.453Z,27.70
2018-03-22T18:56:29.905Z,29.87
2018-03-22T18:58:57.371Z,27.57
2018-03-22T19:01:24.819Z,30.33
2018-03-22T19:03:53.139Z,32.13
2018-03-22T19:06:20.617Z,29.63
2018-03-22T19:08:49.276Z,30.20
2018-03-22T19:11:16.741Z,30.17
2018-03-22T19:13:44.443Z,31.10
2018-03-22T19:16:11.881Z,32.23
2018-03-22T19:18:40.099Z,31.33
2018-03-22T19:21:07.565Z,32.43
2018-03-22T19:23:35.042Z,34.37
2018-03-22T19:26:02.494Z,36.97
2018-03-22T19:28:29.950Z,38.73
2018-03-22T19:30:57.411Z,40.63
2018-03-22T19:33:24.869Z,38.00
2018-03-22T19:35:52.324Z,36.07
2018-03-22T19:38:19.795Z,35.37
2018-03-22T19:40:48.026Z,35.50
2018-03-22T19:43:15.519Z,37.83
2018-03-22T19:45:43.002Z,37.67
2018-03-22T19:48:11.226Z,35.57
2018-03-22T19:50:39.277Z,38.50
2018-03-22T19:53:08.063Z,40.87
2018-03-22T19:55:35.537Z,44.87
2018-03-22T19:58:02.993Z,46.77
2018-03-22T20:00:30.441Z,50.97
2018-03-22T20:02:59.251Z,48.70
2018-03-22T20:05:26.807Z,45.43
2018-03-22T20:07:54.274Z,53.53
2018-03-22T20:10:21.722Z,53.97
2018-03-22T20:12:49.202Z,47.10
2018-03-22T20:15:17.890Z,52.23
2018-03-22T20:17:46.146Z,52.60
2018-03-22T20:20:13.635Z,51.13
2018-03-22T20:22:42.274Z,54.00
2018-03-22T20:25:10.284Z,56.00
2018-03-22T20:27:38.510Z,58.40
2018-03-22T20:30:06.233Z,57.70
2018-03-22T20:32:34.153Z,55.50
2018-03-22T20:35:01.614Z,60.17
2018-03-22T20:37:29.114Z,63.10
2018-03-22T20:39:56.571Z,64.47
2018-03-22T20:42:24.046Z,60.93
2018-03-22T20:44:52.130Z,59.83
2018-03-22T20:47:19.612Z,59.27
2018-03-22T20:49:47.262Z,60.97
2018-03-22T20:52:14.749Z,61.10
2018-03-22T20:54:42.211Z,55.30
2018-03-22T20:57:10.461Z,59.37
2018-03-22T20:59:38.734Z,59.73
2018-03-22T21:02:06.201Z,56.77
2018-03-22T21:04:33.646Z,58.20
2018-03-22T21:07:01.093Z,67.70
2018-03-22T21:09:28.582Z,63.03
2018-03-22T21:11:56.451Z,68.70
2018-03-22T21:14:24.709Z,66.93
2018-03-22T21:16:52.185Z,68.80
2018-03-22T21:19:20.407Z,67.77
2018-03-22T21:21:48.306Z,68.53
2018-03-22T21:24:15.768Z,71.80
2018-03-22T21:26:43.223Z,71.00
2018-03-22T21:29:11.656Z,67.27
2018-03-22T21:31:39.123Z,66.77
2018-03-22T21:34:06.589Z,69.70
2018-03-22T21:36:35.881Z,70.97
2018-03-22T21:39:03.380Z,74.67
2018-03-22T21:41:31.657Z,79.93
2018-03-22T21:44:10.954Z,75.90
2018-03-22T21:46:38.417Z,74.20
2018-03-22T21:49:06.004Z,77.70
2018-03-22T21:51:33.469Z,70.30
2018-03-22T21:54:01.928Z,73.00
2018-03-22T21:56:29.785Z,69.57
2018-03-22T21:58:57.633Z,75.10
2018-03-22T22:01:25.083Z,77.27
2018-03-22T22:03:52.895Z,73.03
2018-03-22T22:06:20.345Z,67.87
2018-03-22T22:08:48.243Z,80.07
2018-03-22T22:11:15.980Z,69.50
2018-03-22T22:13:44.022Z,73.60
2018-03-22T22:16:12.159Z,76.83
2018-03-22T22:18:40.210Z,74.33
2018-03-22T22:21:08.458Z,72.20
2018-03-22T22:23:35.923Z,76.20
2018-03-22T22:26:03.382Z,82.50
2018-03-22T22:28:30.831Z,79.10
2018-03-22T22:30:58.296Z,86.47
2018-03-22T22:33:26.369Z,78.50
2018-03-22T22:35:53.845Z,83.03
2018-03-22T22:38:22.077Z,86.70
2018-03-22T22:40:49.609Z,81.03
2018-03-22T22:43:17.419Z,74.93
2018-03-22T22:45:44.884Z,79.13
2018-03-22T22:48:12.337Z,76.47
2018-03-22T22:50:40.581Z,77.17
2018-03-22T22:53:08.040Z,72.97
2018-03-22T22:55:36.101Z,72.27
2018-03-22T22:58:03.557Z,73.87
2018-03-22T23:00:31.022Z,81.10
2018-03-22T23:02:59.701Z,77.13
2018-03-22T23:05:27.162Z,70.93
2018-03-22T23:07:54.621Z,72.13
2018-03-22T23:10:22.335Z,72.70
2018-03-22T23:12:51.202Z,74.40
2018-03-22T23:15:18.974Z,69.40
2018-03-22T23:17:47.198Z,71.40
2018-03-22T23:20:14.658Z,70.27
2018-03-22T23:22:42.531Z,72.07
2018-03-22T23:25:09.982Z,74.53
2018-03-22T23:27:37.441Z,81.00
2018-03-22T23:30:04.903Z,68.80
2018-03-22T23:32:32.362Z,74.37
2018-03-22T23:34:59.826Z,71.53
2018-03-22T23:37:27.722Z,72.73
2018-03-22T23:39:56.753Z,72.17
2018-03-22T23:42:24.769Z,76.20
2018-03-22T23:44:52.859Z,75.47
2018-03-22T23:47:21.083Z,73.13
2018-03-22T23:49:48.553Z,77.57
2018-03-22T23:52:16.009Z,76.00
2018-03-22T23:54:43.461Z,75.30
2018-03-22T23:57:10.916Z,80.67
2018-03-22T23:59:38.519Z,82.57
